createdAt,value
2017-09-10T00:01:32.592Z,2.60
2017-09-10T00:04:02.100Z,2.63
2017-09-10T00:06:31.688Z,2.93
2017-09-10T00:09:02.421Z,3.00
2017-09-10T00:11:31.872Z,3.07
2017-09-10T00:14:01.309Z,2.93
2017-09-10T00:16:30.700Z,2.87
2017-09-10T00:19:00.133Z,3.20
2017-09-10T00:21:29.544Z,2.87
2017-09-10T00:23:58.981Z,3.00
2017-09-10T00:26:40.801Z,2.63
2017-09-10T00:29:11.106Z,2.67
2017-09-10T00:31:40.653Z,3.00
2017-09-10T00:34:10.113Z,2.60
2017-09-10T00:36:39.561Z,3.10
2017-09-10T00:39:09.046Z,2.67
2017-09-10T00:41:38.535Z,3.43
2017-09-10T00:44:08.020Z,2.40
2017-09-10T00:46:39.797Z,2.70
2017-09-10T00:49:09.217Z,2.40
2017-09-10T00:51:46.524Z,3.00
2017-09-10T00:54:22.938Z,3.10
2017-09-10T00:56:52.397Z,2.70
2017-09-10T00:59:29.057Z,3.03
2017-09-10T01:01:58.553Z,2.90
2017-09-10T01:04:27.992Z,3.10
2017-09-10T01:06:57.388Z,2.73
2017-09-10T01:09:27.065Z,2.67
2017-09-10T01:11:56.538Z,2.70
2017-09-10T01:14:25.981Z,2.60
2017-09-10T01:16:56.516Z,2.97
2017-09-10T01:19:26.018Z,2.93
2017-09-10T01:22:03.107Z,2.60
2017-09-10T01:24:32.622Z,2.47
2017-09-10T01:27:08.888Z,2.80
2017-09-10T01:29:38.322Z,2.20
2017-09-10T01:32:07.773Z,2.60
2017-09-10T01:34:37.511Z,2.40
2017-09-10T01:37:09.517Z,2.80
2017-09-10T01:39:39.007Z,2.60
2017-09-10T01:42:08.448Z,2.73
2017-09-10T01:44:38.501Z,2.60
2017-09-10T01:47:08.786Z,2.43
2017-09-10T01:49:38.421Z,3.07
2017-09-10T01:52:07.869Z,3.40
2017-09-10T01:54:37.402Z,2.33
2017-09-10T01:57:06.838Z,2.87
2017-09-10T01:59:36.273Z,3.00
2017-09-10T02:02:12.836Z,2.53
2017-09-10T02:04:42.288Z,2.37
2017-09-10T02:07:12.194Z,2.70
2017-09-10T02:09:47.981Z,2.17
2017-09-10T02:12:17.430Z,2.87
2017-09-10T02:14:53.013Z,2.77
2017-09-10T02:17:22.450Z,2.33
2017-09-10T02:19:58.909Z,2.40
2017-09-10T02:22:28.542Z,1.80
2017-09-10T02:24:58.149Z,1.97
2017-09-10T02:27:27.622Z,2.00
2017-09-10T02:30:04.797Z,1.80
2017-09-10T02:32:34.237Z,1.40
2017-09-10T02:35:03.725Z,1.40
2017-09-10T02:37:33.204Z,1.40
2017-09-10T02:40:02.663Z,1.80
2017-09-10T02:42:32.106Z,1.40
2017-09-10T02:45:01.545Z,1.70
2017-09-10T02:47:37.003Z,1.70
2017-09-10T02:50:07.294Z,1.50
2017-09-10T02:52:36.737Z,2.27
2017-09-10T02:55:06.146Z,1.60
2017-09-10T02:57:35.580Z,1.40
2017-09-10T03:00:04.991Z,2.20
2017-09-10T03:02:34.482Z,1.87
2017-09-10T03:05:03.889Z,1.20
2017-09-10T03:07:33.505Z,1.43
2017-09-10T03:10:03.002Z,1.40
2017-09-10T03:12:32.433Z,1.20
2017-09-10T03:15:01.892Z,1.33
2017-09-10T03:17:31.349Z,1.23
2017-09-10T03:20:00.752Z,1.33
2017-09-10T03:22:30.250Z,1.30
2017-09-10T03:24:59.739Z,1.20
2017-09-10T03:27:29.174Z,1.30
2017-09-10T03:30:06.011Z,1.20
2017-09-10T03:32:35.563Z,1.30
2017-09-10T03:35:05.048Z,1.53
2017-09-10T03:37:49.029Z,1.40
2017-09-10T03:40:19.676Z,1.37
2017-09-10T03:42:49.190Z,1.47
2017-09-10T03:45:18.705Z,1.60
2017-09-10T03:47:48.235Z,2.03
2017-09-10T03:50:17.722Z,2.00
2017-09-10T03:52:50.464Z,1.80
2017-09-10T03:55:19.905Z,1.83
2017-09-10T03:57:49.595Z,1.23
2017-09-10T04:00:19.020Z,1.20
2017-09-10T04:02:48.465Z,1.20
2017-09-10T04:05:17.987Z,1.40
2017-09-10T04:08:01.394Z,1.63
2017-09-10T04:10:44.757Z,1.03
2017-09-10T04:13:14.211Z,1.33
2017-09-10T04:15:43.731Z,1.10
2017-09-10T04:18:25.784Z,1.37
2017-09-10T04:21:03.662Z,1.47
2017-09-10T04:23:40.621Z,2.10
2017-09-10T04:26:10.144Z,1.60
2017-09-10T04:28:39.583Z,1.40
2017-09-10T04:31:09.171Z,1.30
2017-09-10T04:33:51.149Z,1.67
2017-09-10T04:36:20.701Z,1.30
2017-09-10T04:38:50.136Z,1.37
2017-09-10T04:41:27.108Z,1.60
2017-09-10T04:43:56.558Z,1.20
2017-09-10T04:46:26.001Z,1.40
2017-09-10T04:48:55.448Z,1.10
2017-09-10T04:51:33.432Z,1.27
2017-09-10T04:54:09.038Z,1.10
2017-09-10T04:56:45.367Z,1.33
2017-09-10T04:59:14.903Z,1.40
2017-09-10T05:01:44.370Z,1.20
2017-09-10T05:04:14.848Z,1.20
2017-09-10T05:06:56.546Z,1.30
2017-09-10T05:09:25.982Z,1.20
2017-09-10T05:11:55.519Z,1.07
2017-09-10T05:14:24.957Z,1.17
2017-09-10T05:16:54.402Z,1.37
2017-09-10T05:19:23.808Z,1.30
2017-09-10T05:21:59.356Z,1.20
2017-09-10T05:24:28.804Z,1.30
2017-09-10T05:26:58.351Z,1.20
2017-09-10T05:29:27.757Z,1.50
2017-09-10T05:31:57.199Z,1.60
2017-09-10T05:34:26.667Z,1.40
2017-09-10T05:36:56.109Z,1.77
2017-09-10T05:39:25.529Z,1.20
2017-09-10T05:41:54.988Z,1.43
2017-09-10T05:44:30.877Z,1.57
2017-09-10T05:47:00.328Z,1.47
2017-09-10T05:49:29.847Z,1.30
2017-09-10T05:51:59.253Z,1.47
2017-09-10T05:54:43.527Z,1.40
2017-09-10T05:57:13.318Z,1.40
2017-09-10T05:59:42.812Z,1.30
2017-09-10T06:02:12.258Z,1.30
2017-09-10T06:04:41.708Z,1.37
2017-09-10T06:07:11.147Z,1.60
2017-09-10T06:09:40.690Z,1.20
2017-09-10T06:12:10.211Z,1.20
2017-09-10T06:14:39.701Z,1.03
2017-09-10T06:17:09.252Z,1.50
2017-09-10T06:19:38.722Z,1.30
2017-09-10T06:22:08.191Z,1.30
2017-09-10T06:24:50.412Z,1.40
2017-09-10T06:27:19.862Z,1.17
2017-09-10T06:29:49.302Z,1.13
2017-09-10T06:32:19.312Z,1.77
2017-09-10T06:34:57.118Z,1.50
2017-09-10T06:37:26.662Z,1.83
2017-09-10T06:39:56.106Z,1.50
2017-09-10T06:42:27.542Z,1.30
2017-09-10T06:44:58.553Z,1.10
2017-09-10T06:47:28.045Z,1.37
2017-09-10T06:49:57.502Z,1.40
2017-09-10T06:52:34.655Z,2.17
2017-09-10T06:55:11.342Z,1.57
2017-09-10T06:57:40.800Z,2.30
2017-09-10T07:00:10.234Z,2.20
2017-09-10T07:02:39.730Z,1.67
2017-09-10T07:05:09.219Z,2.30
2017-09-10T07:07:39.876Z,2.73
2017-09-10T07:10:09.352Z,1.60
2017-09-10T07:12:38.793Z,1.70
2017-09-10T07:15:21.886Z,1.13
2017-09-10T07:17:51.345Z,1.63
2017-09-10T07:20:21.350Z,1.00
2017-09-10T07:22:50.797Z,1.40
2017-09-10T07:25:20.282Z,1.37
2017-09-10T07:27:56.029Z,1.20
2017-09-10T07:30:25.509Z,1.37
2017-09-10T07:32:56.184Z,1.70
2017-09-10T07:35:25.630Z,1.00
2017-09-10T07:37:55.338Z,1.20
2017-09-10T07:40:24.788Z,1.20
2017-09-10T07:42:54.293Z,1.50
2017-09-10T07:45:23.694Z,2.10
2017-09-10T07:47:53.139Z,1.50
2017-09-10T07:50:22.540Z,1.00
2017-09-10T07:52:52.661Z,1.20
2017-09-10T07:55:22.112Z,1.60
2017-09-10T07:57:51.590Z,1.47
2017-09-10T08:00:21.017Z,1.47
2017-09-10T08:02:50.429Z,1.33
2017-09-10T08:05:19.910Z,1.77
2017-09-10T08:07:49.356Z,1.13
2017-09-10T08:10:19.873Z,1.47
2017-09-10T08:12:49.318Z,1.20
2017-09-10T08:15:18.747Z,1.13
2017-09-10T08:17:48.233Z,1.27
2017-09-10T08:20:31.894Z,1.07
2017-09-10T08:23:01.324Z,1.30
2017-09-10T08:25:30.766Z,1.20
2017-09-10T08:28:00.192Z,0.90
2017-09-10T08:30:36.949Z,1.13
2017-09-10T08:33:06.384Z,1.00
2017-09-10T08:35:35.821Z,1.03
2017-09-10T08:38:05.282Z,1.13
2017-09-10T08:40:34.721Z,1.10
2017-09-10T08:43:04.260Z,1.27
2017-09-10T08:45:33.689Z,1.30
2017-09-10T08:48:03.166Z,1.33
2017-09-10T08:50:33.939Z,1.20
2017-09-10T08:53:16.149Z,1.20
2017-09-10T08:55:46.411Z,1.00
2017-09-10T08:58:15.822Z,1.00
2017-09-10T09:00:47.296Z,1.10
2017-09-10T09:03:16.729Z,1.33
2017-09-10T09:05:46.131Z,1.20
2017-09-10T09:08:15.612Z,1.03
2017-09-10T09:10:58.326Z,1.50
2017-09-10T09:13:27.932Z,1.27
2017-09-10T09:15:57.453Z,1.00
2017-09-10T09:18:26.818Z,1.03
2017-09-10T09:21:11.397Z,1.03
2017-09-10T09:23:40.942Z,1.20
2017-09-10T09:26:10.593Z,1.10
2017-09-10T09:28:40.012Z,1.30
2017-09-10T09:31:09.454Z,1.10
2017-09-10T09:33:38.902Z,1.20
2017-09-10T09:36:14.382Z,1.50
2017-09-10T09:38:58.370Z,1.40
2017-09-10T09:41:27.825Z,1.30
2017-09-10T09:43:57.220Z,1.60
2017-09-10T09:46:33.334Z,1.47
2017-09-10T09:49:02.762Z,1.33
2017-09-10T09:51:32.278Z,1.83
2017-09-10T09:54:13.311Z,1.80
2017-09-10T09:56:42.744Z,1.40
2017-09-10T09:59:25.198Z,1.43
2017-09-10T10:01:54.686Z,1.50
2017-09-10T10:04:24.204Z,1.30
2017-09-10T10:06:53.711Z,1.80
2017-09-10T10:09:23.143Z,1.83
2017-09-10T10:11:52.558Z,2.20
2017-09-10T10:14:30.929Z,1.90
2017-09-10T10:17:00.374Z,2.10
2017-09-10T10:19:36.199Z,1.63
2017-09-10T10:22:07.581Z,1.30
2017-09-10T10:24:38.507Z,2.40
2017-09-10T10:27:07.960Z,1.87
2017-09-10T10:29:37.356Z,1.50
2017-09-10T10:32:06.813Z,1.40
2017-09-10T10:34:48.620Z,1.30
2017-09-10T10:37:18.125Z,1.23
2017-09-10T10:39:47.610Z,1.43
2017-09-10T10:42:25.386Z,2.80
2017-09-10T10:44:55.713Z,1.07
2017-09-10T10:47:25.105Z,1.80
2017-09-10T10:49:54.520Z,1.53
2017-09-10T10:52:26.152Z,1.33
2017-09-10T10:54:55.591Z,2.43
2017-09-10T10:57:25.005Z,1.90
2017-09-10T10:59:54.432Z,1.60
2017-09-10T11:02:23.852Z,1.37
2017-09-10T11:04:53.259Z,1.50
2017-09-10T11:07:22.700Z,1.40
2017-09-10T11:09:52.243Z,1.90
2017-09-10T11:12:21.787Z,1.60
2017-09-10T11:14:59.206Z,1.70
2017-09-10T11:17:29.011Z,2.07
2017-09-10T11:19:58.501Z,1.20
2017-09-10T11:22:28.166Z,1.30
2017-09-10T11:24:57.576Z,1.30
2017-09-10T11:27:27.030Z,1.43
2017-09-10T11:29:56.486Z,1.67
2017-09-10T11:32:25.953Z,1.50
2017-09-10T11:34:55.366Z,1.50
2017-09-10T11:37:24.809Z,1.50
2017-09-10T11:39:54.197Z,1.60
2017-09-10T11:42:23.628Z,1.10
2017-09-10T11:44:53.078Z,1.10
2017-09-10T11:47:22.992Z,1.93
2017-09-10T11:49:58.505Z,1.90
2017-09-10T11:52:28.955Z,1.20
2017-09-10T11:54:58.373Z,1.53
2017-09-10T11:57:33.944Z,1.27
2017-09-10T12:00:10.864Z,1.50
2017-09-10T12:02:47.329Z,1.10
2017-09-10T12:05:16.806Z,1.40
2017-09-10T12:07:46.282Z,1.10
2017-09-10T12:10:15.948Z,1.20
2017-09-10T12:12:45.408Z,1.87
2017-09-10T12:15:14.848Z,1.30
2017-09-10T12:17:44.293Z,1.53
2017-09-10T12:20:13.930Z,1.13
2017-09-10T12:22:45.242Z,1.13
2017-09-10T12:25:14.670Z,1.00
2017-09-10T12:27:44.139Z,1.00
2017-09-10T12:30:13.777Z,1.13
2017-09-10T12:32:43.500Z,1.20
2017-09-10T12:35:12.941Z,1.10
2017-09-10T12:37:42.390Z,1.40
2017-09-10T12:40:12.415Z,1.00
2017-09-10T12:42:41.883Z,1.20
2017-09-10T12:45:11.315Z,1.00
2017-09-10T12:47:40.738Z,0.90
2017-09-10T12:50:15.293Z,0.80
2017-09-10T12:52:51.038Z,1.00
2017-09-10T12:55:20.430Z,1.37
2017-09-10T12:57:49.958Z,0.97
2017-09-10T13:00:31.477Z,1.20
2017-09-10T13:03:01.155Z,0.90
2017-09-10T13:05:30.609Z,1.10
2017-09-10T13:08:00.053Z,1.00
2017-09-10T13:10:35.805Z,1.00
2017-09-10T13:13:05.340Z,0.90
2017-09-10T13:15:34.733Z,0.90
2017-09-10T13:18:04.225Z,1.02
2017-09-10T13:20:41.168Z,1.20
2017-09-10T13:23:10.987Z,1.50
2017-09-10T13:25:40.664Z,1.10
2017-09-10T13:28:10.072Z,1.10
2017-09-10T13:30:39.590Z,0.93
2017-09-10T13:33:09.008Z,1.07
2017-09-10T13:35:45.188Z,1.00
2017-09-10T13:38:14.704Z,1.30
2017-09-10T13:40:44.210Z,1.10
2017-09-10T13:43:13.589Z,0.90
2017-09-10T13:45:51.921Z,1.10
2017-09-10T13:48:21.465Z,0.90
2017-09-10T13:50:50.999Z,0.90
2017-09-10T13:53:32.744Z,0.90
2017-09-10T13:56:02.312Z,0.95
2017-09-10T13:58:32.534Z,1.08
2017-09-10T14:01:02.026Z,1.00
2017-09-10T14:03:35.404Z,1.00
2017-09-10T14:06:12.582Z,0.85
2017-09-10T14:08:42.284Z,0.90
2017-09-10T14:11:11.710Z,1.23
2017-09-10T14:13:53.785Z,0.90
2017-09-10T14:16:23.216Z,1.10
2017-09-10T14:18:52.603Z,1.00
2017-09-10T14:21:22.006Z,1.27
2017-09-10T14:23:58.417Z,1.03
2017-09-10T14:26:27.866Z,1.30
2017-09-10T14:28:58.276Z,1.00
2017-09-10T14:31:27.905Z,1.20
2017-09-10T14:33:57.440Z,1.00
2017-09-10T14:36:26.958Z,0.80
2017-09-10T14:38:57.471Z,0.82
2017-09-10T14:41:40.191Z,0.80
2017-09-10T14:44:09.771Z,1.02
2017-09-10T14:46:39.151Z,0.80
2017-09-10T14:49:09.407Z,1.00
2017-09-10T14:51:53.814Z,0.90
2017-09-10T14:54:23.264Z,1.10
2017-09-10T14:56:52.665Z,0.80
2017-09-10T14:59:22.748Z,0.80
2017-09-10T15:02:05.121Z,0.90
2017-09-10T15:04:34.872Z,1.00
2017-09-10T15:07:04.275Z,1.08
2017-09-10T15:09:48.417Z,1.50
2017-09-10T15:12:17.919Z,1.00
2017-09-10T15:14:47.502Z,1.02
2017-09-10T15:17:16.957Z,0.98
2017-09-10T15:19:46.418Z,0.90
2017-09-10T15:22:15.854Z,0.95
2017-09-10T15:24:47.171Z,1.50
2017-09-10T15:27:16.724Z,1.12
2017-09-10T15:29:53.342Z,1.10
2017-09-10T15:32:22.790Z,1.10
2017-09-10T15:34:52.592Z,1.00
2017-09-10T15:37:22.007Z,1.00
2017-09-10T15:39:51.605Z,0.98
2017-09-10T15:42:21.068Z,1.00
2017-09-10T15:45:04.242Z,1.08
2017-09-10T15:47:33.729Z,1.25
2017-09-10T15:50:09.250Z,0.90
2017-09-10T15:52:38.689Z,1.35
2017-09-10T15:55:08.513Z,1.10
2017-09-10T15:57:38.165Z,1.00
2017-09-10T16:00:07.775Z,1.10
2017-09-10T16:02:37.482Z,1.30
2017-09-10T16:05:15.808Z,1.17
2017-09-10T16:07:45.280Z,1.33
2017-09-10T16:10:14.696Z,1.67
2017-09-10T16:12:44.154Z,1.00
2017-09-10T16:15:13.630Z,1.20
2017-09-10T16:17:43.802Z,1.20
2017-09-10T16:20:28.318Z,1.08
2017-09-10T16:23:03.932Z,1.20
2017-09-10T16:25:33.602Z,1.10
2017-09-10T16:28:03.113Z,1.20
2017-09-10T16:30:48.061Z,1.20
2017-09-10T16:33:25.907Z,1.10
2017-09-10T16:35:55.781Z,1.42
2017-09-10T16:38:25.327Z,1.50
2017-09-10T16:40:54.802Z,0.90
2017-09-10T16:43:24.322Z,1.50
2017-09-10T16:45:59.489Z,1.50
2017-09-10T16:48:29.058Z,1.03
2017-09-10T16:50:58.485Z,1.60
2017-09-10T16:53:27.920Z,1.30
2017-09-10T16:55:57.580Z,1.40
2017-09-10T16:58:27.100Z,1.80
2017-09-10T17:00:56.524Z,1.10
2017-09-10T17:03:29.828Z,1.23
2017-09-10T17:06:00.598Z,1.00
2017-09-10T17:08:30.052Z,1.40
2017-09-10T17:10:59.466Z,1.30
2017-09-10T17:13:34.048Z,1.20
2017-09-10T17:16:03.485Z,2.37
2017-09-10T17:18:37.858Z,1.90
2017-09-10T17:21:07.333Z,1.43
2017-09-10T17:23:48.834Z,1.50
2017-09-10T17:26:18.293Z,1.30
2017-09-10T17:28:48.812Z,1.80
2017-09-10T17:31:18.221Z,1.50
2017-09-10T17:33:47.744Z,1.63
2017-09-10T17:36:21.043Z,1.57
2017-09-10T17:38:56.855Z,1.67
2017-09-10T17:41:26.315Z,1.97
2017-09-10T17:44:09.124Z,1.50
2017-09-10T17:46:38.775Z,1.47
2017-09-10T17:49:08.265Z,1.40
2017-09-10T17:51:38.099Z,1.70
2017-09-10T17:54:08.389Z,1.73
2017-09-10T17:56:37.818Z,1.30
2017-09-10T17:59:07.462Z,1.57
2017-09-10T18:01:36.845Z,4.53
2017-09-10T18:04:06.274Z,1.63
2017-09-10T18:06:37.293Z,1.30
2017-09-10T18:09:18.863Z,1.33
2017-09-10T18:11:48.972Z,1.27
2017-09-10T18:14:19.645Z,1.20
2017-09-10T18:16:49.075Z,1.20
2017-09-10T18:19:18.569Z,1.70
2017-09-10T18:21:48.085Z,1.47
2017-09-10T18:24:17.498Z,1.40
2017-09-10T18:26:46.917Z,1.10
2017-09-10T18:29:16.389Z,1.53
2017-09-10T18:31:45.915Z,1.70
2017-09-10T18:34:15.718Z,1.43
2017-09-10T18:36:45.229Z,1.87
2017-09-10T18:39:14.679Z,1.57
2017-09-10T18:41:47.629Z,1.50
2017-09-10T18:44:25.701Z,1.40
2017-09-10T18:46:55.109Z,1.50
2017-09-10T18:49:38.186Z,1.60
2017-09-10T18:52:07.629Z,2.60
2017-09-10T18:54:37.083Z,3.50
2017-09-10T18:57:06.704Z,1.40
2017-09-10T18:59:36.362Z,2.93
2017-09-10T19:02:13.865Z,1.50
2017-09-10T19:04:51.472Z,1.37
2017-09-10T19:07:20.954Z,1.53
2017-09-10T19:09:50.398Z,1.40
2017-09-10T19:12:21.277Z,1.70
2017-09-10T19:15:04.789Z,1.80
2017-09-10T19:17:34.227Z,2.37
2017-09-10T19:20:04.331Z,2.30
2017-09-10T19:22:34.007Z,1.63
2017-09-10T19:25:09.518Z,1.60
2017-09-10T19:27:38.996Z,1.57
2017-09-10T19:30:08.450Z,1.33
2017-09-10T19:32:43.077Z,1.57
2017-09-10T19:35:12.546Z,1.40
2017-09-10T19:37:42.069Z,1.70
2017-09-10T19:40:11.665Z,1.40
2017-09-10T19:42:47.321Z,1.17
2017-09-10T19:45:24.055Z,1.50
2017-09-10T19:47:56.079Z,1.67
2017-09-10T19:50:25.836Z,1.83
2017-09-10T19:52:55.315Z,1.40
2017-09-10T19:55:35.521Z,1.60
2017-09-10T19:58:05.120Z,1.70
2017-09-10T20:00:35.137Z,1.73
2017-09-10T20:03:04.915Z,1.50
2017-09-10T20:05:34.518Z,1.50
2017-09-10T20:08:04.030Z,1.60
2017-09-10T20:10:33.665Z,1.53
2017-09-10T20:13:10.836Z,1.30
2017-09-10T20:15:40.341Z,1.50
2017-09-10T20:18:19.291Z,1.40
2017-09-10T20:20:48.782Z,1.83
2017-09-10T20:23:22.106Z,2.07
2017-09-10T20:25:51.757Z,1.77
2017-09-10T20:28:21.191Z,1.30
2017-09-10T20:30:50.598Z,1.57
2017-09-10T20:33:20.069Z,2.00
2017-09-10T20:35:49.666Z,1.40
2017-09-10T20:38:19.097Z,2.20
2017-09-10T20:40:48.571Z,1.40
2017-09-10T20:43:18.922Z,1.50
2017-09-10T20:45:48.374Z,1.37
2017-09-10T20:48:21.659Z,1.30
2017-09-10T20:50:51.381Z,1.50
2017-09-10T20:53:20.780Z,1.40
2017-09-10T20:56:03.217Z,1.70
2017-09-10T20:58:33.680Z,1.63
2017-09-10T21:01:03.210Z,1.53
2017-09-10T21:03:34.124Z,1.97
2017-09-10T21:06:03.536Z,1.80
2017-09-10T21:08:41.579Z,3.20
2017-09-10T21:11:11.240Z,2.00
2017-09-10T21:13:41.751Z,1.97
2017-09-10T21:16:11.429Z,1.70
2017-09-10T21:18:44.429Z,1.60
2017-09-10T21:21:14.012Z,2.00
2017-09-10T21:23:43.457Z,1.63
2017-09-10T21:26:12.909Z,1.60
2017-09-10T21:28:42.435Z,1.70
2017-09-10T21:31:12.020Z,2.00
2017-09-10T21:33:41.553Z,1.40
2017-09-10T21:36:11.942Z,2.00
2017-09-10T21:38:41.473Z,1.70
2017-09-10T21:41:10.911Z,1.77
2017-09-10T21:43:40.570Z,1.57
2017-09-10T21:46:10.030Z,1.90
2017-09-10T21:48:45.996Z,1.60
2017-09-10T21:51:21.596Z,2.13
2017-09-10T21:53:51.049Z,2.00
2017-09-10T21:56:20.473Z,1.80
2017-09-10T21:58:51.722Z,1.40
2017-09-10T22:01:21.512Z,1.70
2017-09-10T22:03:57.226Z,1.50
2017-09-10T22:06:32.896Z,1.33
2017-09-10T22:09:08.330Z,1.77
2017-09-10T22:11:37.781Z,1.70
2017-09-10T22:14:19.353Z,1.50
2017-09-10T22:16:48.886Z,1.50
2017-09-10T22:19:18.361Z,1.40
2017-09-10T22:21:47.802Z,1.43
2017-09-10T22:24:18.394Z,1.60
2017-09-10T22:26:49.942Z,1.50
2017-09-10T22:29:19.584Z,1.33
2017-09-10T22:31:49.086Z,1.60
2017-09-10T22:34:18.688Z,1.90
2017-09-10T22:37:01.391Z,1.20
2017-09-10T22:39:32.179Z,1.77
2017-09-10T22:42:01.942Z,1.37
2017-09-10T22:44:31.398Z,1.50
2017-09-10T22:47:01.215Z,1.53
2017-09-10T22:49:32.970Z,1.33
2017-09-10T22:52:02.606Z,1.47
2017-09-10T22:54:32.039Z,1.20
2017-09-10T22:57:01.525Z,1.83
2017-09-10T22:59:31.014Z,1.83
2017-09-10T23:02:00.436Z,1.83
2017-09-10T23:04:29.844Z,1.80
2017-09-10T23:07:13.246Z,1.60
2017-09-10T23:09:42.662Z,1.23
2017-09-10T23:12:12.293Z,1.20
2017-09-10T23:14:41.882Z,1.83
2017-09-10T23:17:11.334Z,1.40
2017-09-10T23:19:40.753Z,1.40
2017-09-10T23:22:10.229Z,1.27
2017-09-10T23:24:39.736Z,2.10
2017-09-10T23:27:09.161Z,1.27
2017-09-10T23:29:38.595Z,1.37
2017-09-10T23:32:08.114Z,1.20
2017-09-10T23:34:37.558Z,1.27
2017-09-10T23:37:07.038Z,1.90
2017-09-10T23:39:36.602Z,1.70
2017-09-10T23:42:06.054Z,1.50
2017-09-10T23:44:35.578Z,2.83
2017-09-10T23:47:05.002Z,1.50
2017-09-10T23:49:34.449Z,1.57
2017-09-10T23:52:03.914Z,1.70
2017-09-10T23:54:33.404Z,1.30
2017-09-10T23:57:09.165Z,1.40
2017-09-10T23:59:38.597Z,1.20
